Time;durP1;ratioP1;P1;durP2;ratioP2;P2;SDS_P1;SDS_P2;PMS_P1;PMS_P2;Temp;Humidity;BMP_temperature;BMP_pressure;BME280_temperature;BME280_humidity;BME280_pressure;Samples;Min_cycle;Max_cycle;Signal;HPM_P1;HPM_P2
2022/05/12 00:02:18;;;;;;;3.87;3.63;;;;;;;21.75;37.99;95517.59;6187371;28;104123;-56
2022/05/12 00:05:21;;;;;;;3.73;3.43;;;;;;;21.78;38.14;95518.88;6181186;28;103280;-55
2022/05/12 00:08:22;;;;;;;3.90;3.60;;;;;;;21.75;37.50;95511.47;6181920;28;104024;-55
2022/05/12 00:11:24;;;;;;;4.00;3.70;;;;;;;21.74;37.73;95517.91;6185993;28;103311;-55
2022/05/12 00:14:26;;;;;;;4.00;3.70;;;;;;;21.73;37.78;95522.44;6185921;28;103204;-55
2022/05/12 00:17:28;;;;;;;3.83;3.60;;;;;;;21.68;37.79;95521.72;6177738;28;104119;-56
2022/05/12 00:20:32;;;;;;;3.90;3.50;;;;;;;21.67;38.07;95517.47;6185951;28;103024;-55
2022/05/12 00:23:33;;;;;;;3.90;3.60;;;;;;;21.65;37.85;95520.41;6186626;28;103133;-55
2022/05/12 00:26:37;;;;;;;3.63;3.33;;;;;;;21.68;37.71;95522.53;6184991;28;103266;-55
2022/05/12 00:29:38;;;;;;;4.00;3.80;;;;;;;21.63;38.24;95511.13;6176058;28;103086;-56
2022/05/12 00:32:43;;;;;;;4.27;3.87;;;;;;;21.64;37.67;95512.72;6185082;28;105383;-55
2022/05/12 00:35:45;;;;;;;4.23;3.83;;;;;;;21.64;37.62;95515.38;6185717;28;103557;-55
2022/05/12 00:38:48;;;;;;;4.13;3.73;;;;;;;21.61;37.86;95514.09;6186479;28;103216;-55
2022/05/12 00:41:49;;;;;;;4.00;3.70;;;;;;;21.61;38.03;95514.09;6172437;28;104119;-55
2022/05/12 00:44:52;;;;;;;3.80;3.50;;;;;;;21.63;38.01;95514.59;6184841;28;103183;-55
2022/05/12 00:47:54;;;;;;;3.67;3.47;;;;;;;21.67;37.45;95512.13;6186650;28;103206;-56
2022/05/12 00:50:55;;;;;;;4.10;3.70;;;;;;;21.67;37.46;95517.47;6181645;28;104728;-55
2022/05/12 00:54:01;;;;;;;4.33;4.03;;;;;;;21.69;37.43;95521.44;6179611;28;104144;-55
2022/05/12 00:57:07;;;;;;;4.10;3.80;;;;;;;21.65;38.06;95520.41;6186682;28;103172;-55
2022/05/12 01:00:11;;;;;;;4.40;4.00;;;;;;;21.63;38.13;95525.25;6186730;28;103342;-56
2022/05/12 01:03:21;;;;;;;4.40;3.90;;;;;;;21.62;37.82;95525.53;6171492;28;103457;-56
2022/05/12 01:06:23;;;;;;;4.10;3.80;;;;;;;21.63;38.02;95527.13;6180077;28;102981;-55
2022/05/12 01:09:27;;;;;;;4.37;4.07;;;;;;;21.62;38.13;95526.31;6186955;28;104211;-61
2022/05/12 01:12:30;;;;;;;3.80;3.50;;;;;;;21.61;37.79;95532.75;6184115;28;103013;-55
2022/05/12 01:15:32;;;;;;;4.43;4.03;;;;;;;21.65;37.90;95538.28;6176495;28;104203;-55
2022/05/12 01:18:38;;;;;;;6.17;3.90;;;;;;;21.60;38.24;95530.38;6186497;28;102957;-56
2022/05/12 01:21:41;;;;;;;3.77;3.47;;;;;;;21.58;37.51;95527.22;6186599;28;104091;-55
2022/05/12 01:24:43;;;;;;;4.13;3.83;;;;;;;21.49;37.94;95533.16;6178206;28;104132;-56
2022/05/12 01:27:45;;;;;;;4.83;4.43;;;;;;;21.48;38.34;95542.25;6177222;28;103861;-55
2022/05/12 01:30:47;;;;;;;4.43;4.13;;;;;;;21.47;38.00;95535.34;6184698;28;103026;-55
2022/05/12 01:33:51;;;;;;;5.17;4.77;;;;;;;21.48;37.93;95536.91;6185067;28;103960;-55
2022/05/12 01:36:53;;;;;;;4.43;4.13;;;;;;;21.50;38.09;95528.63;6176132;28;103343;-56
2022/05/12 01:39:54;;;;;;;4.90;4.47;;;;;;;21.49;37.97;95527.84;6185112;28;104126;-56
2022/05/12 01:42:56;;;;;;;6.73;4.27;;;;;;;21.51;37.85;95544.34;6184750;28;103149;-56
2022/05/12 01:46:00;;;;;;;4.37;3.83;;;;;;;21.51;37.76;95541.69;6186264;28;102978;-56
2022/05/12 01:49:01;;;;;;;4.50;4.20;;;;;;;21.51;37.80;95541.69;6174654;28;103296;-56
2022/05/12 01:52:04;;;;;;;4.60;4.27;;;;;;;21.52;38.14;95540.59;6186431;28;103272;-56
2022/05/12 01:55:07;;;;;;;4.97;4.53;;;;;;;21.51;38.11;95539.03;6187037;28;103209;-57
2022/05/12 01:58:10;;;;;;;4.43;4.13;;;;;;;21.47;38.16;95546.00;6189470;28;104064;-56
2022/05/12 02:01:12;;;;;;;4.30;4.00;;;;;;;21.44;38.01;95543.13;6179285;28;102969;-56
2022/05/12 02:04:15;;;;;;;4.37;4.03;;;;;;;21.43;37.92;95539.66;6185971;28;104087;-56
2022/05/12 02:07:18;;;;;;;4.17;3.80;;;;;;;21.43;37.92;95550.31;6189997;28;103131;-56
2022/05/12 02:10:24;;;;;;;4.27;3.90;;;;;;;21.44;37.86;95538.59;6184855;28;103970;-56
2022/05/12 02:13:27;;;;;;;4.67;4.27;;;;;;;21.44;37.93;95546.56;6182571;28;104245;-56
2022/05/12 02:16:30;;;;;;;4.27;3.97;;;;;;;21.42;37.85;95551.41;6189782;28;103097;-56
2022/05/12 02:19:32;;;;;;;4.30;3.90;;;;;;;21.42;38.08;95558.59;6189664;28;102678;-56
2022/05/12 02:22:33;;;;;;;4.33;3.93;;;;;;;21.42;38.03;95551.41;6176193;28;104172;-56
2022/05/12 02:25:35;;;;;;;4.30;4.00;;;;;;;21.41;38.22;95557.81;6188179;28;103528;-56
2022/05/12 02:28:37;;;;;;;4.77;4.37;;;;;;;21.41;37.99;95551.69;6189723;28;104341;-56
2022/05/12 02:31:38;;;;;;;5.17;4.77;;;;;;;21.38;37.73;95557.59;6189445;28;103004;-56
2022/05/12 02:34:41;;;;;;;5.00;4.60;;;;;;;21.37;38.16;95561.34;6169257;28;104411;-56
2022/05/12 02:37:43;;;;;;;4.90;4.30;;;;;;;21.36;38.17;95563.22;6189434;28;104185;-56
2022/05/12 02:40:45;;;;;;;5.07;4.67;;;;;;;21.36;38.18;95557.88;6188535;28;104058;-56
2022/05/12 02:43:47;;;;;;;4.80;4.37;;;;;;;21.37;38.15;95567.44;6188300;28;104115;-56
2022/05/12 02:46:49;;;;;;;5.27;4.87;;;;;;;21.34;38.59;95560.03;6178570;28;103107;-56
2022/05/12 02:49:50;;;;;;;6.50;5.60;;;;;;;21.35;38.29;95563.50;6188633;28;103430;-56
2022/05/12 02:52:52;;;;;;;7.90;7.23;;;;;;;21.37;38.23;95562.13;6186556;28;103103;-57
2022/05/12 02:55:54;;;;;;;8.30;7.53;;;;;;;21.35;38.44;95569.63;6178996;28;104515;-56
2022/05/12 02:58:56;;;;;;;10.40;9.40;;;;;;;21.31;38.90;95563.25;6182879;28;103250;-56
2022/05/12 03:01:58;;;;;;;8.07;7.37;;;;;;;21.29;38.72;95564.63;6185463;28;103007;-56
2022/05/12 03:05:00;;;;;;;8.03;6.50;;;;;;;21.36;38.52;95570.41;6185364;28;104032;-59
2022/05/12 03:08:03;;;;;;;10.30;8.07;;;;;;;21.46;38.05;95568.38;6176365;28;104086;-60
2022/05/12 03:11:05;;;;;;;9.57;8.77;;;;;;;21.54;38.31;95574.94;6187794;28;104202;-59
2022/05/12 03:14:06;;;;;;;7.80;7.10;;;;;;;21.56;38.00;95574.66;6187780;28;104557;-59
2022/05/12 03:17:08;;;;;;;8.63;7.57;;;;;;;21.56;37.69;95570.09;6188259;28;103127;-59
2022/05/12 03:20:15;;;;;;;12.90;9.30;;;;;;;21.56;38.46;95577.31;6177464;28;104290;-60
2022/05/12 03:23:18;;;;;;;12.70;7.13;;;;;;;21.55;38.66;95579.19;6164243;28;103983;-58
2022/05/12 03:26:20;;;;;;;8.60;7.80;;;;;;;21.51;38.25;95586.97;6185798;28;103027;-58
2022/05/12 03:29:22;;;;;;;8.10;6.83;;;;;;;21.50;38.55;95587.22;6187066;28;103156;-58
2022/05/12 03:32:24;;;;;;;9.03;6.83;;;;;;;21.48;38.63;95592.03;6177252;28;103418;-59
2022/05/12 03:35:26;;;;;;;7.73;7.00;;;;;;;21.46;38.64;95595.00;6187141;28;103244;-59
2022/05/12 03:38:27;;;;;;;10.20;8.07;;;;;;;21.43;38.76;95597.44;6185911;28;102998;-59
2022/05/12 03:41:30;;;;;;;8.90;8.10;;;;;;;21.45;38.82;95606.72;6181994;28;103018;-57
2022/05/12 03:44:49;;;;;;;12.67;11.47;;;;;;;21.51;38.50;95610.13;6185545;28;104218;-57
2022/05/12 03:47:51;;;;;;;10.50;9.17;;;;;;;21.54;38.26;95608.75;6186368;28;104178;-57
2022/05/12 03:50:52;;;;;;;9.63;8.67;;;;;;;21.53;38.40;95613.28;6186583;28;104296;-57
2022/05/12 03:53:54;;;;;;;8.50;7.70;;;;;;;21.49;38.35;95612.25;6169880;28;104753;-57
2022/05/12 03:56:56;;;;;;;12.87;9.17;;;;;;;21.66;39.55;95620.53;6181663;28;103212;-58
2022/05/12 03:59:58;;;;;;;13.20;12.00;;;;;;;21.71;40.44;95620.50;6170076;28;103937;-58
2022/05/12 04:03:00;;;;;;;11.27;8.87;;;;;;;21.63;38.56;95623.00;6179000;28;104086;-58
2022/05/12 04:06:05;;;;;;;8.70;7.80;;;;;;;21.67;39.08;95624.78;6168684;28;105061;-57
2022/05/12 04:09:06;;;;;;;8.67;7.73;;;;;;;21.71;38.49;95622.38;6179142;28;103358;-58
2022/05/12 04:12:09;;;;;;;10.80;7.00;;;;;;;21.70;38.55;95623.44;6179224;28;103757;-57
2022/05/12 04:15:11;;;;;;;10.83;8.50;;;;;;;21.71;39.21;95625.03;6172957;28;104333;-56
2022/05/12 04:18:14;;;;;;;11.03;8.07;;;;;;;21.67;38.76;95624.78;6170348;28;103905;-57
2022/05/12 04:21:16;;;;;;;9.93;6.63;;;;;;;21.29;39.14;95623.97;6179780;28;103260;-56
2022/05/12 04:24:18;;;;;;;6.93;6.40;;;;;;;21.37;39.90;95623.38;6185175;28;103141;-56
2022/05/12 04:27:20;;;;;;;11.17;7.37;;;;;;;21.50;39.88;95624.50;6175617;28;104125;-56
2022/05/12 04:30:24;;;;;;;8.00;6.67;;;;;;;21.57;39.55;95632.16;6186235;28;102935;-56
2022/05/12 04:36:47;;;;;;;9.93;7.00;;;;;;;21.61;39.96;95627.81;6187057;28;103156;-56
2022/05/12 04:39:49;;;;;;;9.77;7.03;;;;;;;21.59;39.51;95619.34;6175767;28;103442;-56
2022/05/12 04:42:53;;;;;;;10.03;6.60;;;;;;;21.63;39.28;95631.00;6186189;28;103281;-55
2022/05/12 04:45:54;;;;;;;10.07;7.07;;;;;;;21.62;39.67;95626.75;6183025;28;103307;-56
2022/05/12 04:48:58;;;;;;;7.80;6.70;;;;;;;21.63;39.70;95629.13;6183354;28;103279;-56
2022/05/12 04:52:01;;;;;;;8.03;6.10;;;;;;;21.66;39.52;95631.19;6175956;28;103472;-56
2022/05/12 04:55:04;;;;;;;7.27;6.57;;;;;;;21.65;39.27;95634.94;6183657;28;104020;-55
2022/05/12 04:58:07;;;;;;;8.90;6.80;;;;;;;21.64;39.80;95635.22;6184640;28;102963;-56
2022/05/12 05:01:08;;;;;;;7.37;6.77;;;;;;;21.65;39.12;95642.94;6176799;28;103608;-56
2022/05/12 05:04:10;;;;;;;6.43;5.93;;;;;;;21.66;39.34;95643.72;6186339;28;104305;-55
2022/05/12 05:07:12;;;;;;;6.97;6.00;;;;;;;21.67;39.46;95647.97;6186698;28;103598;-56
2022/05/12 05:10:15;;;;;;;6.37;5.67;;;;;;;21.67;39.23;95647.97;6186047;28;102971;-57
2022/05/12 05:13:20;;;;;;;8.53;6.20;;;;;;;21.67;39.45;95640.78;6175525;28;103506;-57
2022/05/12 05:16:22;;;;;;;6.53;5.70;;;;;;;21.69;39.14;95645.84;6186440;28;103259;-56
2022/05/12 05:19:24;;;;;;;6.60;6.10;;;;;;;21.69;39.56;95654.63;6186356;28;102961;-57
2022/05/12 05:22:26;;;;;;;6.37;5.77;;;;;;;21.71;39.04;95649.00;6186405;28;102842;-57
2022/05/12 05:25:27;;;;;;;7.17;6.47;;;;;;;21.73;39.47;95649.50;6174920;28;103151;-59
2022/05/12 05:28:29;;;;;;;10.30;5.90;;;;;;;21.76;39.40;95654.25;6186006;28;103133;-59
2022/05/12 05:31:31;;;;;;;6.50;5.90;;;;;;;21.79;38.94;95653.66;6185620;28;102919;-59
2022/05/12 05:34:33;;;;;;;6.33;5.70;;;;;;;21.80;39.15;95649.91;6181634;28;104055;-56
2022/05/12 05:37:36;;;;;;;9.57;6.00;;;;;;;21.86;39.17;95651.47;6180531;28;103581;-56
2022/05/12 05:40:38;;;;;;;8.27;5.97;;;;;;;21.95;39.20;95652.41;6185884;28;104280;-57
2022/05/12 05:43:48;;;;;;;6.90;6.20;;;;;;;22.06;38.85;95651.16;6186671;28;103303;-56
2022/05/12 05:46:49;;;;;;;6.37;5.77;;;;;;;22.15;38.40;95655.81;6176497;28;104163;-55
2022/05/12 05:49:51;;;;;;;7.30;6.70;;;;;;;22.22;38.25;95656.25;6184273;28;103294;-56
2022/05/12 05:56:18;;;;;;;6.70;6.00;;;;;;;22.37;37.97;95656.03;6185663;28;104063;-56
2022/05/12 05:59:19;;;;;;;6.17;5.67;;;;;;;22.42;38.54;95651.38;6175259;28;105390;-56
2022/05/12 06:02:22;;;;;;;7.40;5.80;;;;;;;22.48;38.31;95648.63;6185384;28;103188;-56
2022/05/12 06:05:24;;;;;;;6.37;5.70;;;;;;;22.53;38.14;95652.00;6186355;28;103331;-56
2022/05/12 06:08:26;;;;;;;6.80;6.03;;;;;;;22.59;38.14;95650.06;6184632;28;103108;-55
2022/05/12 06:11:31;;;;;;;7.13;5.47;;;;;;;22.65;37.71;95652.34;6178401;28;103937;-56
2022/05/12 06:14:33;;;;;;;7.53;5.83;;;;;;;22.67;37.56;95655.50;6185733;28;104143;-59
2022/05/12 06:17:36;;;;;;;9.50;6.43;;;;;;;22.60;38.15;95652.44;6185553;28;102956;-60
2022/05/12 06:20:38;;;;;;;8.03;7.20;;;;;;;22.59;38.44;95645.53;6175896;28;103738;-59
2022/05/12 06:23:40;;;;;;;10.70;7.17;;;;;;;22.65;38.73;95644.34;6185029;28;104298;-60
2022/05/12 06:26:41;;;;;;;10.43;7.00;;;;;;;22.70;38.51;95641.59;6184671;28;102992;-60
2022/05/12 06:29:49;;;;;;;10.83;7.37;;;;;;;22.76;39.15;95644.16;6184766;28;104108;-60
2022/05/12 06:32:51;;;;;;;9.40;7.07;;;;;;;22.80;38.90;95651.28;6174611;28;103176;-61
2022/05/12 06:35:55;;;;;;;9.73;7.07;;;;;;;22.86;38.82;95649.31;6185471;28;103004;-56
2022/05/12 06:38:57;;;;;;;9.10;6.83;;;;;;;22.95;38.97;95653.66;6187469;28;102939;-57
2022/05/12 06:41:59;;;;;;;11.53;8.10;;;;;;;23.01;38.42;95654.34;6189539;28;103177;-56
2022/05/12 06:45:01;;;;;;;7.93;6.70;;;;;;;23.08;38.61;95656.63;6179336;28;105869;-56
2022/05/12 06:48:03;;;;;;;11.57;6.70;;;;;;;23.13;38.51;95651.19;6189995;28;103937;-57
2022/05/12 06:51:05;;;;;;;8.97;6.67;;;;;;;23.16;38.15;95650.59;6188604;28;103541;-56
2022/05/12 06:54:08;;;;;;;8.53;6.10;;;;;;;23.19;38.36;95650.81;6184479;28;103937;-57
2022/05/12 06:57:12;;;;;;;7.80;6.83;;;;;;;23.22;37.96;95650.22;6184030;28;104129;-56
2022/05/12 07:00:16;;;;;;;8.23;6.97;;;;;;;23.26;38.01;95648.53;6188909;28;103224;-57
2022/05/12 07:03:19;;;;;;;11.17;6.47;;;;;;;23.28;37.68;95646.34;6189424;28;103277;-56
2022/05/12 07:06:21;;;;;;;7.67;6.63;;;;;;;23.33;38.00;95647.34;6179073;28;104302;-56
2022/05/12 07:09:24;;;;;;;6.97;5.60;;;;;;;23.35;37.52;95653.19;6188917;28;104254;-57
2022/05/12 07:12:26;;;;;;;8.63;6.43;;;;;;;23.37;37.68;95648.34;6188864;28;104247;-56
2022/05/12 07:15:28;;;;;;;7.70;5.50;;;;;;;23.40;37.79;95645.09;6188486;28;103687;-56
2022/05/12 07:18:30;;;;;;;6.90;5.87;;;;;;;23.42;37.11;95641.00;6179337;28;103420;-56
2022/05/12 07:26:35;;;;;;;7.00;6.10;;;;;;;23.50;37.55;95650.97;6189092;28;103416;-56
2022/05/12 07:28:14;;;;;;;8.30;6.30;;;;;;;23.54;37.31;95641.31;6183785;28;102972;-57
2022/05/12 07:31:15;;;;;;;7.30;6.10;;;;;;;23.60;37.77;95633.97;6182513;28;104430;-56
2022/05/12 07:34:18;;;;;;;8.17;6.20;;;;;;;23.64;37.23;95636.81;6188452;28;102953;-56
2022/05/12 07:37:20;;;;;;;8.03;5.90;;;;;;;23.65;37.48;95625.03;6188506;28;103143;-56
2022/05/12 07:40:22;;;;;;;6.70;5.27;;;;;;;23.67;37.31;95631.66;6177365;28;103018;-57
2022/05/12 07:43:24;;;;;;;11.13;5.90;;;;;;;23.69;37.77;95639.38;6188010;28;103208;-55
2022/05/12 07:46:30;;;;;;;6.03;5.43;;;;;;;23.72;37.66;95626.22;6187930;28;103560;-57
2022/05/12 07:49:35;;;;;;;6.00;5.40;;;;;;;23.74;37.79;95629.38;6188707;28;104012;-56
2022/05/12 07:52:37;;;;;;;6.50;5.30;;;;;;;23.74;37.52;95625.91;6178035;28;105872;-56
2022/05/12 07:55:39;;;;;;;5.90;5.30;;;;;;;23.74;37.44;95621.34;6187927;28;104334;-57
2022/05/12 07:58:42;;;;;;;6.10;5.60;;;;;;;23.76;37.39;95615.69;6186012;28;103317;-56
2022/05/12 08:01:44;;;;;;;5.97;5.37;;;;;;;23.77;37.14;95615.41;6187672;28;103220;-57
2022/05/12 08:04:46;;;;;;;6.47;5.77;;;;;;;23.79;37.36;95615.88;6177486;28;103216;-57
2022/05/12 08:07:49;;;;;;;6.83;6.23;;;;;;;23.80;37.15;95614.00;6187436;28;103122;-56
2022/05/12 08:10:50;;;;;;;6.80;5.60;;;;;;;23.81;37.15;95623.59;6187274;28;103288;-56
2022/05/12 08:13:53;;;;;;;5.80;5.17;;;;;;;23.80;36.98;95611.31;6181572;28;103107;-56
2022/05/12 08:16:55;;;;;;;6.03;5.43;;;;;;;23.79;37.25;95610.53;6182750;28;104138;-56
2022/05/12 08:19:58;;;;;;;6.20;5.60;;;;;;;23.81;37.31;95608.34;6187949;28;102947;-56
2022/05/12 08:22:59;;;;;;;5.73;5.03;;;;;;;23.83;36.76;95600.81;6186678;28;103157;-56
2022/05/12 08:26:02;;;;;;;8.40;5.73;;;;;;;23.82;37.00;95607.25;6176603;28;103051;-56
2022/05/12 08:29:04;;;;;;;6.10;5.50;;;;;;;23.84;37.22;95599.72;6186080;28;103113;-56
2022/05/12 08:32:07;;;;;;;5.40;4.90;;;;;;;23.84;37.27;95606.94;6187291;28;102914;-57
2022/05/12 08:35:08;;;;;;;5.73;5.17;;;;;;;23.85;37.12;95601.31;6186958;28;103341;-57
2022/05/12 08:38:13;;;;;;;6.23;5.17;;;;;;;23.85;37.11;95600.50;6176360;28;104134;-56
2022/05/12 08:41:38;;;;;;;5.77;5.17;;;;;;;23.87;36.94;95593.78;6187227;28;102897;-57
2022/05/12 08:44:40;;;;;;;5.23;4.73;;;;;;;23.86;37.00;95596.78;6186822;28;103129;-57
2022/05/12 08:47:46;;;;;;;5.87;5.27;;;;;;;23.87;36.80;95596.47;6181087;28;104095;-56
2022/05/12 08:50:53;;;;;;;5.50;5.00;;;;;;;23.87;36.84;95599.13;6181095;28;102984;-57
2022/05/12 08:53:59;;;;;;;5.87;5.27;;;;;;;23.87;37.13;95595.69;6186480;28;102990;-57
2022/05/12 08:57:06;;;;;;;5.50;5.00;;;;;;;23.88;36.79;95598.03;6187078;28;104704;-57
2022/05/12 09:00:11;;;;;;;5.00;4.57;;;;;;;23.87;36.96;95599.13;6175241;28;103118;-57
2022/05/12 09:03:17;;;;;;;6.33;5.30;;;;;;;23.88;37.04;95589.25;6186817;28;104375;-56
2022/05/12 09:06:29;;;;;;;5.20;4.80;;;;;;;23.89;36.92;95598.84;6186032;28;103023;-57
2022/05/12 09:09:42;;;;;;;5.83;5.20;;;;;;;23.89;36.57;95590.81;6186827;28;104268;-57
2022/05/12 09:13:02;;;;;;;6.00;5.30;;;;;;;23.88;36.49;95579.34;6174198;28;103414;-56
2022/05/12 09:16:19;;;;;;;5.20;4.70;;;;;;;23.90;36.58;95587.03;6186500;28;102962;-57
2022/05/12 09:19:21;;;;;;;6.60;5.03;;;;;;;23.89;36.63;95580.91;6186527;28;103063;-56
2022/05/12 09:22:28;;;;;;;6.40;5.57;;;;;;;23.89;36.56;95586.25;6175894;28;103163;-56
2022/05/12 09:25:42;;;;;;;5.43;4.93;;;;;;;23.89;36.69;95586.25;6186176;28;102963;-57
2022/05/12 09:28:47;;;;;;;5.27;4.87;;;;;;;23.88;36.80;95590.03;6186203;28;104120;-57
2022/05/12 09:31:51;;;;;;;5.77;5.17;;;;;;;23.89;36.59;95583.59;6185791;28;103039;-56
2022/05/12 09:35:11;;;;;;;5.33;4.83;;;;;;;23.87;36.81;95590.34;6174783;28;104241;-57
2022/05/12 09:38:23;;;;;;;4.90;4.50;;;;;;;23.87;36.51;95587.66;6186029;28;104654;-57
2022/05/12 09:41:36;;;;;;;7.63;5.03;;;;;;;23.86;36.44;95586.88;6186177;28;102844;-57
2022/05/12 09:44:38;;;;;;;4.70;4.30;;;;;;;23.85;36.87;95587.16;6181176;28;103850;-57
2022/05/12 09:47:39;;;;;;;5.60;5.10;;;;;;;23.85;36.92;95576.44;6180785;28;104424;-57
2022/05/12 09:50:41;;;;;;;6.00;5.30;;;;;;;23.83;37.04;95574.09;6185472;28;102919;-57
2022/05/12 09:53:43;;;;;;;4.93;4.50;;;;;;;23.84;37.10;95573.00;6186334;28;103188;-56
2022/05/12 09:56:57;;;;;;;6.00;5.40;;;;;;;23.82;37.09;95569.84;6174732;28;103264;-57
2022/05/12 09:59:59;;;;;;;5.23;4.73;;;;;;;23.82;36.85;95564.50;6186260;28;104205;-57
2022/05/12 10:10:08;;;;;;;5.17;4.70;;;;;;;23.73;36.85;95549.50;6178574;28;103899;-57
2022/05/12 10:13:41;;;;;;;5.40;4.90;;;;;;;23.79;36.87;95545.59;6187557;28;103187;-57
2022/05/12 10:16:43;;;;;;;5.33;4.93;;;;;;;23.77;37.20;95553.94;6189509;28;103129;-57
2022/05/12 10:19:45;;;;;;;5.03;4.53;;;;;;;23.76;36.88;95546.22;6179224;28;103986;-57
2022/05/12 10:23:03;;;;;;;5.67;4.97;;;;;;;23.74;37.09;95535.84;6188400;28;103278;-58
2022/05/12 10:26:31;;;;;;;5.83;5.27;;;;;;;23.72;36.82;95538.03;6190746;28;104050;-61
2022/05/12 10:30:02;;;;;;;4.90;4.50;;;;;;;23.72;37.19;95530.00;6185674;28;102970;-59
2022/05/12 10:33:32;;;;;;;8.97;8.17;;;;;;;23.67;37.39;95522.09;6183911;28;103055;-59
2022/05/12 10:36:50;;;;;;;8.77;7.87;;;;;;;23.62;37.98;95521.44;6189000;28;103170;-59
2022/05/12 10:39:57;;;;;;;7.67;7.07;;;;;;;23.57;37.58;95512.44;6189916;28;103176;-59
2022/05/12 10:43:25;;;;;;;8.63;7.83;;;;;;;23.56;37.83;95515.44;6179016;28;103064;-59
2022/05/12 10:46:48;;;;;;;8.03;7.33;;;;;;;23.54;37.84;95498.91;6190023;28;104164;-59
2022/05/12 10:49:53;;;;;;;8.60;7.90;;;;;;;23.53;38.31;95505.34;6188815;28;103376;-60
2022/05/12 10:53:18;;;;;;;9.80;8.33;;;;;;;23.52;38.48;95501.09;6183894;28;103812;-56
2022/05/12 10:57:13;;;;;;;9.43;8.43;;;;;;;23.57;38.36;95495.63;6188474;28;102980;-56
2022/05/12 11:00:42;;;;;;;8.17;7.47;;;;;;;23.57;37.95;95493.75;6176157;28;104780;-56
2022/05/12 11:03:59;;;;;;;8.40;7.70;;;;;;;23.57;38.07;95498.31;6186543;28;103930;-56
2022/05/12 11:07:13;;;;;;;9.30;8.40;;;;;;;23.57;37.89;95496.44;6183484;28;104106;-56
2022/05/12 11:10:50;;;;;;;8.13;7.43;;;;;;;23.56;38.07;95491.38;6188730;28;102952;-56
2022/05/12 11:13:54;;;;;;;8.23;7.33;;;;;;;23.55;37.79;95479.13;6188683;28;103043;-57
2022/05/12 11:17:27;;;;;;;8.50;7.80;;;;;;;23.51;38.04;95486.94;6179055;28;104253;-56
2022/05/12 11:20:32;;;;;;;8.17;7.47;;;;;;;23.52;37.76;95485.88;6188534;28;103002;-57
2022/05/12 11:23:56;;;;;;;8.43;7.63;;;;;;;23.51;37.89;95478.91;6188443;28;104234;-56
2022/05/12 11:27:03;;;;;;;7.67;7.00;;;;;;;23.49;38.15;95474.97;6180556;28;103192;-55
2022/05/12 11:30:21;;;;;;;7.70;6.97;;;;;;;23.49;37.89;95467.75;6187457;28;102818;-56
2022/05/12 11:33:25;;;;;;;7.10;6.50;;;;;;;23.47;37.83;95458.47;6188252;28;102939;-56
2022/05/12 11:36:38;;;;;;;8.60;7.90;;;;;;;23.46;37.96;95448.88;6188267;28;103943;-56
2022/05/12 11:39:43;;;;;;;8.60;7.70;;;;;;;23.45;38.06;95453.44;6178482;28;103762;-56
2022/05/12 11:46:42;;;;;;;7.57;6.97;;;;;;;23.44;37.81;95443.06;6187890;28;104223;-56
2022/05/12 11:49:43;;;;;;;8.70;7.97;;;;;;;23.42;37.94;95440.69;6178298;28;104501;-57
2022/05/12 11:53:00;;;;;;;7.67;6.90;;;;;;;23.40;37.98;95437.53;6187160;28;103180;-56
2022/05/12 11:56:11;;;;;;;6.97;6.37;;;;;;;23.40;37.92;95428.75;6187301;28;103129;-56
2022/05/12 11:59:24;;;;;;;7.90;7.20;;;;;;;23.40;37.74;95431.41;6185854;28;103135;-55
2022/05/12 12:02:29;;;;;;;7.50;6.90;;;;;;;23.40;37.77;95424.19;6177174;28;104173;-56
2022/05/12 12:05:31;;;;;;;7.00;6.50;;;;;;;23.38;37.81;95426.38;6187573;28;103943;-56
2022/05/12 12:08:33;;;;;;;7.97;7.37;;;;;;;23.38;37.61;95418.38;6186962;28;103121;-56
2022/05/12 12:11:43;;;;;;;7.20;6.70;;;;;;;23.37;37.65;95419.47;6187444;28;103202;-56
2022/05/12 12:14:51;;;;;;;7.03;6.50;;;;;;;23.36;37.93;95412.53;6181265;28;103992;-56
2022/05/12 12:17:53;;;;;;;8.00;7.30;;;;;;;23.35;37.71;95410.16;6187163;28;104262;-56
2022/05/12 12:20:59;;;;;;;6.67;6.17;;;;;;;23.36;37.46;95409.88;6187348;28;103319;-57
2022/05/12 12:24:22;;;;;;;7.40;6.80;;;;;;;23.35;37.54;95405.59;6176976;28;103790;-56
2022/05/12 12:27:40;;;;;;;7.73;7.10;;;;;;;23.36;37.65;95403.75;6186329;28;102989;-57
2022/05/12 12:30:48;;;;;;;7.20;6.60;;;;;;;23.35;37.87;95397.59;6186717;28;103739;-58
2022/05/12 12:34:03;;;;;;;6.93;6.40;;;;;;;23.35;37.78;95388.78;6186538;28;103789;-56
2022/05/12 12:37:08;;;;;;;7.80;7.20;;;;;;;23.32;37.96;95389.41;6174399;28;103491;-56
2022/05/12 12:40:37;;;;;;;7.77;7.07;;;;;;;23.35;37.91;95386.13;6186819;28;104018;-57
2022/05/12 12:43:42;;;;;;;7.10;6.60;;;;;;;23.34;37.98;95379.19;6186806;28;103268;-57
2022/05/12 12:47:12;;;;;;;7.07;6.53;;;;;;;23.30;37.87;95377.16;6176821;28;103036;-57
2022/05/12 12:50:36;;;;;;;12.10;11.10;;;;;;;23.27;37.64;95368.94;6186811;28;103149;-57
2022/05/12 12:57:05;;;;;;;16.23;14.90;;;;;;;23.26;37.60;95349.44;6174996;28;104026;-57
2022/05/12 13:00:22;;;;;;;15.77;14.27;;;;;;;23.30;38.25;95350.44;6164818;28;104847;-58
2022/05/12 13:03:29;;;;;;;19.03;17.33;;;;;;;23.33;37.71;95358.94;6183530;28;103082;-58
2022/05/12 13:06:36;;;;;;;16.27;14.87;;;;;;;23.30;37.51;95350.44;6186053;28;103986;-57
2022/05/12 13:09:42;;;;;;;17.97;16.27;;;;;;;23.32;37.71;95352.00;6175222;28;104712;-57
2022/05/12 13:13:05;;;;;;;17.50;16.00;;;;;;;23.30;37.79;95345.09;6186482;28;104075;-58
2022/05/12 13:16:14;;;;;;;17.70;16.20;;;;;;;23.34;37.68;95341.81;6186801;28;103315;-57
2022/05/12 13:19:26;;;;;;;20.20;18.20;;;;;;;23.33;37.94;95335.69;6187025;28;103906;-58
2022/05/12 13:22:38;;;;;;;17.23;15.83;;;;;;;23.35;37.29;95340.72;6175287;28;103229;-58
2022/05/12 13:25:41;;;;;;;16.77;15.17;;;;;;;23.33;37.51;95342.91;6185942;28;103256;-58
2022/05/12 13:28:43;;;;;;;12.73;11.63;;;;;;;23.33;36.75;95334.91;6186753;28;104421;-57
2022/05/12 13:31:54;;;;;;;13.00;11.80;;;;;;;23.34;36.23;95339.13;6179715;28;103075;-58
2022/05/12 13:34:57;;;;;;;11.93;10.83;;;;;;;23.33;36.25;95338.34;6185591;28;103925;-58
2022/05/12 13:38:05;;;;;;;12.63;11.53;;;;;;;23.32;36.30;95331.44;6186196;28;104040;-58
2022/05/12 13:41:25;;;;;;;12.30;11.10;;;;;;;23.32;36.59;95328.75;6185705;28;103151;-58
2022/05/12 13:44:28;;;;;;;11.33;9.90;;;;;;;23.33;35.99;95321.53;6175642;28;103057;-58
2022/05/12 13:47:37;;;;;;;9.63;8.83;;;;;;;23.33;36.06;95325.00;6188329;28;103285;-58
2022/05/12 13:51:04;;;;;;;10.97;9.70;;;;;;;23.31;36.20;95319.19;6190228;28;104136;-58
2022/05/12 13:54:35;;;;;;;9.90;8.93;;;;;;;23.36;36.08;95316.41;6184889;28;102717;-58
2022/05/12 13:57:43;;;;;;;9.47;8.63;;;;;;;23.33;36.04;95311.66;6188687;28;103138;-58
2022/05/12 14:00:53;;;;;;;9.93;9.03;;;;;;;23.33;36.55;95313.53;6190648;28;104279;-58
2022/05/12 14:04:16;;;;;;;11.60;10.70;;;;;;;23.33;36.80;95310.84;6190731;28;104163;-58
2022/05/12 14:07:29;;;;;;;12.60;11.50;;;;;;;23.32;36.80;95304.72;6179472;28;103594;-59
2022/05/12 14:10:36;;;;;;;14.07;12.63;;;;;;;23.32;36.96;95301.28;6189574;28;103193;-58
2022/05/12 14:20:26;;;;;;;11.10;10.10;;;;;;;23.32;36.84;95290.59;6188759;28;103002;-59
2022/05/12 14:23:28;;;;;;;10.40;9.60;;;;;;;23.32;37.81;95282.59;6189746;28;104166;-59
2022/05/12 14:26:29;;;;;;;10.33;9.53;;;;;;;23.32;37.87;95275.34;6190173;28;104119;-59
2022/05/12 14:29:32;;;;;;;10.63;9.73;;;;;;;23.33;38.01;95276.16;6179000;28;103015;-59
2022/05/12 14:32:40;;;;;;;12.40;11.50;;;;;;;23.32;38.19;95275.34;6189388;28;103312;-59
2022/05/12 14:35:42;;;;;;;13.23;12.13;;;;;;;23.31;38.17;95279.13;6189483;28;103571;-59
2022/05/12 14:38:46;;;;;;;15.93;14.53;;;;;;;23.32;38.46;95275.34;6189405;28;103924;-59
2022/05/12 14:41:48;;;;;;;17.07;15.70;;;;;;;23.34;38.31;95275.03;6179160;28;103226;-59
2022/05/12 14:44:50;;;;;;;15.60;14.30;;;;;;;23.33;38.70;95273.47;6188177;28;104401;-59
2022/05/12 14:48:01;;;;;;;15.27;13.97;;;;;;;23.33;38.73;95273.47;6187809;28;103226;-59
2022/05/12 14:51:03;;;;;;;13.10;12.10;;;;;;;23.33;39.43;95279.59;6184002;28;104205;-59
2022/05/12 14:54:05;;;;;;;12.93;11.83;;;;;;;23.34;38.96;95275.84;6183726;28;103071;-57